Folsom, Pennsylvania
Current Conditions -  °F | °C
As of 6:54 PM on Monday 22 Dec 2014 (Local Time) from KPHL Reporting Station
Haze Haze  
Wind Chill:   Ceiling: 7000
Heat Index:   Visibility: 5mi
Dew Point:   Wind: 8mph
Humidity: 86%   Direction: 50°NE
Pressure: 30.19"   Gusts: NA
Location:  39.89°N, 75.33°W
Report Text: KPHL 222354Z 05007KT 5SM BR SCT025 BKN070 OVC100 05/03 A3019 RMK AO2 RAE44 SLP223 P0000 60000 T00500028 10072 20050 56001 $
Loading
Personal Weather Stations






























Interactive Weather Map New forecast layout! Learn more

10-Day Weather Forecast

Advertisements
Track Severe Weather on mobile